createdAt,value
2023-03-26T00:02:30.213Z,13.59
2023-03-26T00:07:30.177Z,13.59
2023-03-26T00:12:30.116Z,13.70
2023-03-26T00:17:30.249Z,13.96
2023-03-26T00:22:30.049Z,13.59
2023-03-26T00:27:30.003Z,13.37
2023-03-26T00:32:30.023Z,13.59
2023-03-26T00:37:29.952Z,13.37
2023-03-26T00:42:29.903Z,13.96
2023-03-26T00:47:29.868Z,14.02
2023-03-26T00:52:29.845Z,13.37
2023-03-26T00:57:35.434Z,14.02
2023-03-26T01:02:29.847Z,13.75
2023-03-26T01:07:29.731Z,13.86
2023-03-26T01:12:29.716Z,13.43
2023-03-26T01:17:29.761Z,13.86
2023-03-26T01:22:29.668Z,14.07
2023-03-26T01:27:29.643Z,13.80
2023-03-26T01:32:29.714Z,13.96
2023-03-26T01:37:29.575Z,13.96
2023-03-26T01:42:29.559Z,13.75
2023-03-26T01:47:29.570Z,13.86
2023-03-26T01:52:29.510Z,13.64
2023-03-26T01:57:29.505Z,13.91
2023-03-26T02:02:29.651Z,13.37
2023-03-26T02:07:29.455Z,13.80
2023-03-26T02:12:29.440Z,13.59
2023-03-26T02:17:29.404Z,13.75
2023-03-26T02:22:29.374Z,13.80
2023-03-26T02:27:29.346Z,13.59
2023-03-26T02:32:29.444Z,14.02
2023-03-26T02:37:29.290Z,13.91
2023-03-26T02:42:29.283Z,13.70
2023-03-26T02:47:29.280Z,13.48
2023-03-26T02:52:29.214Z,14.02
2023-03-26T02:57:29.202Z,13.80
2023-03-26T03:02:29.565Z,13.96
2023-03-26T03:07:29.135Z,13.37
2023-03-26T03:12:29.118Z,13.43
2023-03-26T03:17:29.122Z,13.64
2023-03-26T03:22:29.081Z,14.07
2023-03-26T03:27:29.062Z,13.91
2023-03-26T03:32:29.064Z,13.59
2023-03-26T03:37:29.027Z,14.02
2023-03-26T03:42:29.028Z,13.75
2023-03-26T03:47:29.017Z,13.75
2023-03-26T03:52:28.972Z,13.37
2023-03-26T03:57:28.949Z,13.37
2023-03-26T04:02:28.987Z,14.02
2023-03-26T04:07:28.874Z,13.43
2023-03-26T04:12:28.875Z,13.37
2023-03-26T04:17:28.839Z,13.37
2023-03-26T04:22:28.812Z,13.54
2023-03-26T04:27:28.804Z,13.43
2023-03-26T04:32:28.762Z,13.43
2023-03-26T04:37:28.727Z,13.75
2023-03-26T04:42:28.748Z,13.32
2023-03-26T04:47:28.709Z,13.48
2023-03-26T04:52:28.634Z,13.54
2023-03-26T04:57:28.606Z,13.59
2023-03-26T05:02:28.600Z,13.91
2023-03-26T05:07:28.565Z,13.59
2023-03-26T05:12:28.541Z,13.75
2023-03-26T05:17:28.515Z,13.37
2023-03-26T05:22:28.488Z,13.59
2023-03-26T05:27:28.467Z,13.32
2023-03-26T05:32:28.486Z,13.59
2023-03-26T05:37:28.438Z,13.80
2023-03-26T05:42:28.374Z,13.54
2023-03-26T05:47:28.419Z,13.80
2023-03-26T05:52:28.324Z,13.80
2023-03-26T05:57:28.309Z,13.37
2023-03-26T06:02:28.292Z,13.16
2023-03-26T06:07:28.244Z,13.59
2023-03-26T06:12:28.209Z,13.37
2023-03-26T06:17:28.232Z,13.48
2023-03-26T06:22:28.162Z,13.43
2023-03-26T06:27:28.138Z,13.43
2023-03-26T06:32:28.178Z,13.54
2023-03-26T06:37:28.085Z,13.32
2023-03-26T06:42:32.006Z,13.59
2023-03-26T06:47:28.029Z,13.48
2023-03-26T06:52:27.983Z,13.64
2023-03-26T06:57:27.959Z,13.59
2023-03-26T07:02:27.967Z,13.37
2023-03-26T07:07:27.916Z,13.64
2023-03-26T07:12:27.889Z,13.48
2023-03-26T07:17:27.882Z,13.43
2023-03-26T07:22:27.839Z,13.59
2023-03-26T07:27:27.843Z,13.43
2023-03-26T07:32:27.828Z,13.48
2023-03-26T07:37:27.778Z,13.43
2023-03-26T07:42:27.745Z,13.43
2023-03-26T07:47:27.753Z,13.16
2023-03-26T07:52:27.716Z,13.37
2023-03-26T07:57:27.740Z,13.59
2023-03-26T08:02:27.693Z,13.64
2023-03-26T08:07:27.640Z,13.59
2023-03-26T08:12:27.598Z,13.32
2023-03-26T08:17:28.822Z,13.32
2023-03-26T08:22:27.570Z,13.37
2023-03-26T08:27:27.546Z,13.16
2023-03-26T08:32:27.547Z,13.37
2023-03-26T08:37:27.521Z,13.43
2023-03-26T08:42:27.463Z,13.37
2023-03-26T08:47:27.475Z,13.54
2023-03-26T08:52:27.386Z,13.37
2023-03-26T08:57:27.371Z,13.59
2023-03-26T09:02:27.418Z,13.59
2023-03-26T09:07:27.324Z,13.21
2023-03-26T09:12:27.309Z,13.37
2023-03-26T09:17:27.304Z,13.37
2023-03-26T09:22:27.304Z,13.37
2023-03-26T09:27:27.238Z,13.21
2023-03-26T09:32:27.250Z,13.64
2023-03-26T09:37:27.200Z,13.59
2023-03-26T09:42:27.153Z,13.37
2023-03-26T09:47:27.206Z,13.37
2023-03-26T09:52:27.094Z,13.21
2023-03-26T09:57:27.077Z,13.32
2023-03-26T10:02:45.972Z,13.43
2023-03-26T10:07:26.941Z,13.43
2023-03-26T10:12:26.921Z,13.48
2023-03-26T10:17:26.955Z,13.59
2023-03-26T10:22:26.844Z,13.37
2023-03-26T10:27:26.808Z,13.37
2023-03-26T10:32:26.828Z,13.37
2023-03-26T10:37:26.744Z,13.27
2023-03-26T10:42:26.703Z,13.43
2023-03-26T10:47:26.726Z,13.37
2023-03-26T10:52:26.682Z,13.43
2023-03-26T10:57:26.657Z,13.21
2023-03-26T11:02:29.919Z,13.54
2023-03-26T11:07:26.588Z,13.16
2023-03-26T11:12:28.226Z,13.43
2023-03-26T11:17:40.134Z,13.37
2023-03-26T11:22:26.479Z,13.21
2023-03-26T11:27:26.594Z,13.37
2023-03-26T11:32:26.482Z,13.21
2023-03-26T11:37:27.374Z,13.54
2023-03-26T11:42:26.386Z,13.32
2023-03-26T11:47:26.380Z,13.21
2023-03-26T11:52:28.964Z,13.21
2023-03-26T11:57:26.323Z,13.21
2023-03-26T12:02:26.416Z,13.16
2023-03-26T12:07:26.257Z,13.43
2023-03-26T12:12:26.219Z,13.16
2023-03-26T12:17:30.986Z,13.16
2023-03-26T12:22:26.222Z,13.16
2023-03-26T12:27:26.145Z,13.00
2023-03-26T12:32:32.569Z,13.43
2023-03-26T12:37:26.070Z,13.43
2023-03-26T12:44:54.655Z,13.27
2023-03-26T12:48:00.898Z,13.21
2023-03-26T12:52:25.961Z,13.43
2023-03-26T12:57:26.044Z,13.00
2023-03-26T13:02:26.024Z,13.43
2023-03-26T13:07:25.860Z,13.32
2023-03-26T13:12:25.874Z,13.37
2023-03-26T13:17:25.820Z,13.43
2023-03-26T13:22:25.778Z,13.27
2023-03-26T13:27:25.800Z,13.16
2023-03-26T13:32:25.815Z,13.00
2023-03-26T13:37:25.662Z,13.37
2023-03-26T13:42:25.621Z,13.43
2023-03-26T13:47:25.723Z,13.11
2023-03-26T13:52:26.507Z,13.11
2023-03-26T13:57:25.618Z,13.43
2023-03-26T14:02:25.524Z,13.37
2023-03-26T14:07:30.445Z,13.21
2023-03-26T14:12:25.415Z,13.48
2023-03-26T14:17:25.424Z,13.59
2023-03-26T14:22:26.061Z,13.21
2023-03-26T14:27:25.315Z,13.48
2023-03-26T14:32:25.666Z,13.54
2023-03-26T14:37:27.345Z,13.37
2023-03-26T14:42:25.185Z,13.37
2023-03-26T14:47:25.325Z,13.32
2023-03-26T14:52:25.189Z,13.43
2023-03-26T14:57:25.074Z,13.32
2023-03-26T15:02:25.191Z,13.16
2023-03-26T15:07:25.046Z,13.27
2023-03-26T15:12:25.016Z,13.37
2023-03-26T15:17:25.056Z,13.43
2023-03-26T15:22:26.126Z,13.43
2023-03-26T15:27:24.961Z,13.54
2023-03-26T15:32:24.945Z,13.32
2023-03-26T15:37:24.918Z,13.21
2023-03-26T15:42:24.902Z,13.37
2023-03-26T15:47:24.867Z,13.16
2023-03-26T15:52:24.839Z,13.27
2023-03-26T15:57:24.799Z,13.21
2023-03-26T16:02:24.778Z,13.27
2023-03-26T16:07:24.717Z,13.37
2023-03-26T16:12:24.684Z,13.21
2023-03-26T16:17:24.694Z,13.00
2023-03-26T16:22:24.690Z,13.00
2023-03-26T16:27:24.676Z,13.37
2023-03-26T16:32:24.619Z,13.43
2023-03-26T16:37:24.560Z,13.21
2023-03-26T16:42:24.503Z,13.21
2023-03-26T16:47:24.520Z,13.16
2023-03-26T16:52:24.442Z,13.43
2023-03-26T16:57:24.432Z,13.37
2023-03-26T17:02:24.420Z,13.21
2023-03-26T17:07:24.400Z,13.27
2023-03-26T17:12:25.068Z,13.11
2023-03-26T17:17:24.354Z,13.05
2023-03-26T17:22:24.277Z,13.21
2023-03-26T17:27:24.305Z,13.21
2023-03-26T17:32:24.351Z,13.43
2023-03-26T17:37:24.260Z,13.16
2023-03-26T17:42:24.226Z,13.21
2023-03-26T17:47:25.583Z,13.11
2023-03-26T17:52:24.179Z,12.84
2023-03-26T17:57:24.173Z,12.73
2023-03-26T18:02:24.196Z,13.00
2023-03-26T18:07:24.061Z,12.78
2023-03-26T18:12:24.007Z,12.73
2023-03-26T18:17:24.607Z,13.21
2023-03-26T18:22:23.962Z,13.05
2023-03-26T18:27:24.056Z,12.84
2023-03-26T18:32:23.978Z,12.84
2023-03-26T18:37:23.962Z,12.78
2023-03-26T18:42:24.145Z,13.16
2023-03-26T18:47:23.887Z,13.27
2023-03-26T18:52:23.789Z,13.21
2023-03-26T18:57:23.858Z,13.00
2023-03-26T19:02:24.010Z,12.62
2023-03-26T19:07:23.745Z,13.11
2023-03-26T19:12:23.670Z,12.94
2023-03-26T19:17:23.768Z,13.00
2023-03-26T19:22:23.597Z,13.05
2023-03-26T19:27:23.581Z,12.94
2023-03-26T19:32:23.577Z,13.11
2023-03-26T19:37:23.512Z,13.27
2023-03-26T19:42:23.559Z,12.68
2023-03-26T19:47:29.309Z,12.84
2023-03-26T19:52:23.412Z,13.11
2023-03-26T19:57:23.408Z,13.16
2023-03-26T20:02:23.484Z,12.68
2023-03-26T20:07:35.786Z,12.78
2023-03-26T20:12:23.306Z,12.62
2023-03-26T20:17:23.848Z,13.27
2023-03-26T20:22:23.277Z,12.57
2023-03-26T20:27:23.207Z,12.62
2023-03-26T20:32:26.410Z,13.16
2023-03-26T20:37:23.164Z,12.78
2023-03-26T20:42:23.133Z,12.84
2023-03-26T20:47:23.305Z,12.78
2023-03-26T20:52:22.989Z,12.57
2023-03-26T20:57:23.040Z,12.84
2023-03-26T21:02:23.290Z,12.84
2023-03-26T21:07:22.909Z,12.84
2023-03-26T21:12:22.872Z,12.73
2023-03-26T21:17:26.633Z,12.62
2023-03-26T21:22:22.840Z,12.62
2023-03-26T21:27:22.773Z,12.68
2023-03-26T21:32:22.769Z,13.11
2023-03-26T21:37:22.689Z,12.89
2023-03-26T21:42:22.659Z,12.84
2023-03-26T21:47:22.615Z,12.84
2023-03-26T21:52:22.585Z,13.21
2023-03-26T21:57:22.547Z,12.62
2023-03-26T22:02:22.539Z,13.16
2023-03-26T22:07:22.480Z,12.62
2023-03-26T22:12:22.454Z,13.21
2023-03-26T22:17:22.429Z,12.84
2023-03-26T22:22:22.376Z,12.73
2023-03-26T22:27:22.379Z,12.62
2023-03-26T22:32:22.405Z,13.27
2023-03-26T22:37:22.330Z,12.84
2023-03-26T22:42:22.282Z,12.57
2023-03-26T22:47:22.314Z,12.84
2023-03-26T22:52:22.209Z,12.68
2023-03-26T22:57:22.172Z,12.46
2023-03-26T23:02:22.147Z,12.62
2023-03-26T23:07:22.129Z,12.73
2023-03-26T23:12:22.091Z,13.16
2023-03-26T23:17:22.061Z,12.57
2023-03-26T23:22:21.984Z,12.84
2023-03-26T23:27:22.709Z,12.84
2023-03-26T23:32:23.627Z,12.62
2023-03-26T23:37:21.951Z,12.78
2023-03-26T23:42:28.897Z,12.78
2023-03-26T23:47:21.856Z,12.68
2023-03-26T23:52:21.784Z,12.68
2023-03-26T23:57:21.781Z,13.21
